sensor_id;sensor_type;location;lat;lon;timestamp;P1;durP1;ratioP1;P2;durP2;ratioP2
77051;SDS011;65980;44.898;8.602;2023-07-29T00:02:36;6.40;;;3.35;;
77051;SDS011;65980;44.898;8.602;2023-07-29T00:05:40;5.10;;;3.03;;
77051;SDS011;65980;44.898;8.602;2023-07-29T00:08:44;5.47;;;3.03;;
77051;SDS011;65980;44.898;8.602;2023-07-29T00:11:49;9.23;;;2.90;;
77051;SDS011;65980;44.898;8.602;2023-07-29T00:14:52;5.28;;;3.20;;
77051;SDS011;65980;44.898;8.602;2023-07-29T00:17:57;6.82;;;3.55;;
77051;SDS011;65980;44.898;8.602;2023-07-29T00:21:01;4.72;;;3.13;;
77051;SDS011;65980;44.898;8.602;2023-07-29T00:24:05;4.70;;;3.10;;
77051;SDS011;65980;44.898;8.602;2023-07-29T00:27:09;4.20;;;2.97;;
77051;SDS011;65980;44.898;8.602;2023-07-29T00:30:12;5.88;;;3.20;;
77051;SDS011;65980;44.898;8.602;2023-07-29T00:33:17;5.57;;;2.92;;
77051;SDS011;65980;44.898;8.602;2023-07-29T00:36:21;6.18;;;3.05;;
77051;SDS011;65980;44.898;8.602;2023-07-29T00:39:24;6.15;;;3.30;;
77051;SDS011;65980;44.898;8.602;2023-07-29T00:42:29;5.68;;;3.05;;
77051;SDS011;65980;44.898;8.602;2023-07-29T00:45:33;7.13;;;3.10;;
77051;SDS011;65980;44.898;8.602;2023-07-29T00:48:39;6.93;;;3.58;;
77051;SDS011;65980;44.898;8.602;2023-07-29T00:51:42;5.18;;;2.92;;
77051;SDS011;65980;44.898;8.602;2023-07-29T00:54:47;5.68;;;2.88;;
77051;SDS011;65980;44.898;8.602;2023-07-29T00:57:51;8.93;;;3.00;;
77051;SDS011;65980;44.898;8.602;2023-07-29T01:00:57;4.60;;;2.90;;
77051;SDS011;65980;44.898;8.602;2023-07-29T01:04:02;6.65;;;2.50;;
77051;SDS011;65980;44.898;8.602;2023-07-29T01:10:34;5.23;;;2.50;;
77051;SDS011;65980;44.898;8.602;2023-07-29T01:13:50;10.77;;;2.65;;
77051;SDS011;65980;44.898;8.602;2023-07-29T01:17:03;5.70;;;2.65;;
77051;SDS011;65980;44.898;8.602;2023-07-29T01:20:11;6.40;;;2.60;;
77051;SDS011;65980;44.898;8.602;2023-07-29T01:23:25;4.10;;;2.70;;
77051;SDS011;65980;44.898;8.602;2023-07-29T01:26:33;5.80;;;2.65;;
77051;SDS011;65980;44.898;8.602;2023-07-29T01:29:37;6.65;;;2.72;;
77051;SDS011;65980;44.898;8.602;2023-07-29T01:32:54;5.85;;;2.70;;
77051;SDS011;65980;44.898;8.602;2023-07-29T01:36:11;8.27;;;2.97;;
77051;SDS011;65980;44.898;8.602;2023-07-29T01:39:19;5.90;;;2.80;;
77051;SDS011;65980;44.898;8.602;2023-07-29T01:42:26;7.82;;;2.75;;
77051;SDS011;65980;44.898;8.602;2023-07-29T01:45:31;7.93;;;2.60;;
77051;SDS011;65980;44.898;8.602;2023-07-29T01:48:42;6.03;;;2.85;;
77051;SDS011;65980;44.898;8.602;2023-07-29T01:51:47;6.75;;;2.88;;
77051;SDS011;65980;44.898;8.602;2023-07-29T01:54:51;6.15;;;2.60;;
77051;SDS011;65980;44.898;8.602;2023-07-29T01:57:55;6.88;;;2.90;;
77051;SDS011;65980;44.898;8.602;2023-07-29T02:01:02;7.18;;;2.90;;
77051;SDS011;65980;44.898;8.602;2023-07-29T02:04:06;6.13;;;2.90;;
77051;SDS011;65980;44.898;8.602;2023-07-29T02:07:10;5.38;;;2.67;;
77051;SDS011;65980;44.898;8.602;2023-07-29T02:10:16;8.77;;;2.90;;
77051;SDS011;65980;44.898;8.602;2023-07-29T02:13:20;7.35;;;2.92;;
77051;SDS011;65980;44.898;8.602;2023-07-29T02:16:24;4.68;;;2.80;;
77051;SDS011;65980;44.898;8.602;2023-07-29T02:19:29;7.25;;;2.92;;
77051;SDS011;65980;44.898;8.602;2023-07-29T02:22:32;7.32;;;3.15;;
77051;SDS011;65980;44.898;8.602;2023-07-29T02:25:36;4.57;;;3.03;;
77051;SDS011;65980;44.898;8.602;2023-07-29T02:28:40;7.07;;;3.00;;
77051;SDS011;65980;44.898;8.602;2023-07-29T02:31:44;7.57;;;3.35;;
77051;SDS011;65980;44.898;8.602;2023-07-29T02:34:49;6.00;;;3.20;;
77051;SDS011;65980;44.898;8.602;2023-07-29T02:37:54;8.20;;;3.13;;
77051;SDS011;65980;44.898;8.602;2023-07-29T02:41:00;6.22;;;3.03;;
77051;SDS011;65980;44.898;8.602;2023-07-29T02:44:04;9.90;;;3.13;;
77051;SDS011;65980;44.898;8.602;2023-07-29T02:47:09;5.57;;;3.08;;
77051;SDS011;65980;44.898;8.602;2023-07-29T02:50:12;6.25;;;3.20;;
77051;SDS011;65980;44.898;8.602;2023-07-29T02:53:17;8.05;;;3.25;;
77051;SDS011;65980;44.898;8.602;2023-07-29T02:56:20;10.02;;;3.20;;
77051;SDS011;65980;44.898;8.602;2023-07-29T02:59:25;9.60;;;3.30;;
77051;SDS011;65980;44.898;8.602;2023-07-29T03:02:29;8.30;;;3.03;;
77051;SDS011;65980;44.898;8.602;2023-07-29T03:05:35;6.60;;;2.92;;
77051;SDS011;65980;44.898;8.602;2023-07-29T03:08:39;5.80;;;2.92;;
77051;SDS011;65980;44.898;8.602;2023-07-29T03:11:43;8.45;;;3.75;;
77051;SDS011;65980;44.898;8.602;2023-07-29T03:14:50;4.78;;;3.20;;
77051;SDS011;65980;44.898;8.602;2023-07-29T03:17:53;7.22;;;3.30;;
77051;SDS011;65980;44.898;8.602;2023-07-29T03:20:57;8.82;;;2.90;;
77051;SDS011;65980;44.898;8.602;2023-07-29T03:24:02;4.80;;;3.30;;
77051;SDS011;65980;44.898;8.602;2023-07-29T03:27:05;7.05;;;3.60;;
77051;SDS011;65980;44.898;8.602;2023-07-29T03:30:11;5.93;;;3.90;;
77051;SDS011;65980;44.898;8.602;2023-07-29T03:33:16;6.25;;;2.92;;
77051;SDS011;65980;44.898;8.602;2023-07-29T03:36:25;7.65;;;3.75;;
77051;SDS011;65980;44.898;8.602;2023-07-29T03:39:31;6.53;;;3.40;;
77051;SDS011;65980;44.898;8.602;2023-07-29T03:42:36;4.82;;;3.13;;
77051;SDS011;65980;44.898;8.602;2023-07-29T03:45:40;8.20;;;3.17;;
77051;SDS011;65980;44.898;8.602;2023-07-29T03:48:44;6.20;;;3.35;;
77051;SDS011;65980;44.898;8.602;2023-07-29T03:51:49;7.22;;;3.25;;
77051;SDS011;65980;44.898;8.602;2023-07-29T03:54:53;8.10;;;2.70;;
77051;SDS011;65980;44.898;8.602;2023-07-29T03:57:58;5.70;;;2.83;;
77051;SDS011;65980;44.898;8.602;2023-07-29T04:01:03;10.30;;;3.10;;
77051;SDS011;65980;44.898;8.602;2023-07-29T04:04:08;5.68;;;2.90;;
77051;SDS011;65980;44.898;8.602;2023-07-29T04:07:12;7.85;;;3.22;;
77051;SDS011;65980;44.898;8.602;2023-07-29T04:10:17;5.65;;;3.22;;
77051;SDS011;65980;44.898;8.602;2023-07-29T04:13:22;7.22;;;3.10;;
77051;SDS011;65980;44.898;8.602;2023-07-29T04:16:26;7.65;;;2.97;;
77051;SDS011;65980;44.898;8.602;2023-07-29T04:19:32;7.03;;;3.03;;
77051;SDS011;65980;44.898;8.602;2023-07-29T04:22:36;8.07;;;3.50;;
77051;SDS011;65980;44.898;8.602;2023-07-29T04:25:40;10.75;;;3.42;;
77051;SDS011;65980;44.898;8.602;2023-07-29T04:28:44;6.78;;;3.60;;
77051;SDS011;65980;44.898;8.602;2023-07-29T04:31:49;6.00;;;4.30;;
77051;SDS011;65980;44.898;8.602;2023-07-29T04:34:53;10.73;;;4.97;;
77051;SDS011;65980;44.898;8.602;2023-07-29T04:37:57;7.72;;;4.85;;
77051;SDS011;65980;44.898;8.602;2023-07-29T04:41:01;13.77;;;5.30;;
77051;SDS011;65980;44.898;8.602;2023-07-29T04:44:05;7.15;;;4.20;;
77051;SDS011;65980;44.898;8.602;2023-07-29T04:47:10;11.35;;;4.78;;
77051;SDS011;65980;44.898;8.602;2023-07-29T04:50:14;7.45;;;4.45;;
77051;SDS011;65980;44.898;8.602;2023-07-29T04:53:18;7.88;;;4.18;;
77051;SDS011;65980;44.898;8.602;2023-07-29T04:56:22;8.70;;;5.13;;
77051;SDS011;65980;44.898;8.602;2023-07-29T04:59:27;9.93;;;4.88;;
77051;SDS011;65980;44.898;8.602;2023-07-29T05:02:32;13.13;;;5.45;;
77051;SDS011;65980;44.898;8.602;2023-07-29T05:05:36;8.98;;;5.38;;
77051;SDS011;65980;44.898;8.602;2023-07-29T05:08:41;9.27;;;5.28;;
77051;SDS011;65980;44.898;8.602;2023-07-29T05:11:45;7.13;;;5.20;;
77051;SDS011;65980;44.898;8.602;2023-07-29T05:14:52;12.65;;;5.15;;
77051;SDS011;65980;44.898;8.602;2023-07-29T05:17:56;7.95;;;5.40;;
77051;SDS011;65980;44.898;8.602;2023-07-29T05:21:00;10.48;;;5.22;;
77051;SDS011;65980;44.898;8.602;2023-07-29T05:24:04;11.07;;;5.20;;
77051;SDS011;65980;44.898;8.602;2023-07-29T05:27:08;9.32;;;4.25;;
77051;SDS011;65980;44.898;8.602;2023-07-29T05:30:13;8.45;;;4.50;;
77051;SDS011;65980;44.898;8.602;2023-07-29T05:33:17;6.70;;;3.90;;
77051;SDS011;65980;44.898;8.602;2023-07-29T05:36:21;8.90;;;3.90;;
77051;SDS011;65980;44.898;8.602;2023-07-29T05:39:25;10.88;;;4.15;;
77051;SDS011;65980;44.898;8.602;2023-07-29T05:42:29;11.05;;;4.32;;
77051;SDS011;65980;44.898;8.602;2023-07-29T05:45:33;7.72;;;3.97;;
77051;SDS011;65980;44.898;8.602;2023-07-29T05:48:37;9.18;;;3.78;;
77051;SDS011;65980;44.898;8.602;2023-07-29T05:51:42;9.43;;;3.88;;
77051;SDS011;65980;44.898;8.602;2023-07-29T05:54:47;9.95;;;4.10;;
77051;SDS011;65980;44.898;8.602;2023-07-29T05:57:52;7.45;;;3.88;;
77051;SDS011;65980;44.898;8.602;2023-07-29T06:00:57;6.68;;;3.60;;
77051;SDS011;65980;44.898;8.602;2023-07-29T06:04:02;8.18;;;3.25;;
77051;SDS011;65980;44.898;8.602;2023-07-29T06:07:07;6.85;;;3.08;;
77051;SDS011;65980;44.898;8.602;2023-07-29T06:10:12;8.98;;;3.60;;
77051;SDS011;65980;44.898;8.602;2023-07-29T06:13:17;5.72;;;2.80;;
77051;SDS011;65980;44.898;8.602;2023-07-29T06:16:21;7.57;;;2.65;;
77051;SDS011;65980;44.898;8.602;2023-07-29T06:19:25;4.70;;;2.97;;
77051;SDS011;65980;44.898;8.602;2023-07-29T06:22:29;4.50;;;2.63;;
77051;SDS011;65980;44.898;8.602;2023-07-29T06:25:33;12.95;;;3.22;;
77051;SDS011;65980;44.898;8.602;2023-07-29T06:28:38;5.03;;;2.60;;
77051;SDS011;65980;44.898;8.602;2023-07-29T06:31:42;8.02;;;2.38;;
77051;SDS011;65980;44.898;8.602;2023-07-29T06:34:46;5.03;;;2.40;;
77051;SDS011;65980;44.898;8.602;2023-07-29T06:37:51;7.07;;;3.05;;
77051;SDS011;65980;44.898;8.602;2023-07-29T06:40:56;9.82;;;3.35;;
77051;SDS011;65980;44.898;8.602;2023-07-29T06:44:03;7.03;;;2.20;;
77051;SDS011;65980;44.898;8.602;2023-07-29T06:47:08;7.05;;;2.70;;
77051;SDS011;65980;44.898;8.602;2023-07-29T06:50:12;10.30;;;2.70;;
77051;SDS011;65980;44.898;8.602;2023-07-29T06:53:16;7.20;;;2.60;;
77051;SDS011;65980;44.898;8.602;2023-07-29T06:56:21;5.50;;;2.80;;
77051;SDS011;65980;44.898;8.602;2023-07-29T06:59:25;8.20;;;2.45;;
77051;SDS011;65980;44.898;8.602;2023-07-29T07:02:29;5.28;;;2.30;;
77051;SDS011;65980;44.898;8.602;2023-07-29T07:05:33;4.97;;;2.38;;
77051;SDS011;65980;44.898;8.602;2023-07-29T07:08:37;6.80;;;2.35;;
77051;SDS011;65980;44.898;8.602;2023-07-29T07:11:41;7.65;;;2.70;;
77051;SDS011;65980;44.898;8.602;2023-07-29T07:14:45;5.97;;;2.70;;
77051;SDS011;65980;44.898;8.602;2023-07-29T07:17:50;3.95;;;2.35;;
77051;SDS011;65980;44.898;8.602;2023-07-29T07:20:55;6.55;;;2.70;;
77051;SDS011;65980;44.898;8.602;2023-07-29T07:23:59;5.32;;;2.45;;
77051;SDS011;65980;44.898;8.602;2023-07-29T07:27:03;4.18;;;2.20;;
77051;SDS011;65980;44.898;8.602;2023-07-29T07:30:08;5.80;;;2.35;;
77051;SDS011;65980;44.898;8.602;2023-07-29T07:33:12;4.05;;;2.28;;
77051;SDS011;65980;44.898;8.602;2023-07-29T07:36:17;9.98;;;2.63;;
77051;SDS011;65980;44.898;8.602;2023-07-29T07:39:21;6.30;;;2.50;;
77051;SDS011;65980;44.898;8.602;2023-07-29T07:42:25;10.18;;;2.60;;
77051;SDS011;65980;44.898;8.602;2023-07-29T07:45:29;11.43;;;2.40;;
77051;SDS011;65980;44.898;8.602;2023-07-29T07:48:36;7.57;;;2.58;;
77051;SDS011;65980;44.898;8.602;2023-07-29T07:51:43;7.18;;;2.30;;
77051;SDS011;65980;44.898;8.602;2023-07-29T07:54:51;4.70;;;2.35;;
77051;SDS011;65980;44.898;8.602;2023-07-29T07:57:56;5.50;;;2.40;;
77051;SDS011;65980;44.898;8.602;2023-07-29T08:01:01;6.18;;;2.33;;
77051;SDS011;65980;44.898;8.602;2023-07-29T08:04:15;6.10;;;2.15;;
77051;SDS011;65980;44.898;8.602;2023-07-29T08:07:19;7.55;;;2.53;;
77051;SDS011;65980;44.898;8.602;2023-07-29T08:10:23;6.50;;;2.20;;
77051;SDS011;65980;44.898;8.602;2023-07-29T08:13:28;7.90;;;2.50;;
77051;SDS011;65980;44.898;8.602;2023-07-29T08:16:32;5.10;;;2.00;;
77051;SDS011;65980;44.898;8.602;2023-07-29T08:19:36;3.33;;;1.95;;
77051;SDS011;65980;44.898;8.602;2023-07-29T08:22:41;9.23;;;2.30;;
77051;SDS011;65980;44.898;8.602;2023-07-29T08:25:56;5.22;;;2.35;;
77051;SDS011;65980;44.898;8.602;2023-07-29T08:29:05;6.15;;;2.40;;
77051;SDS011;65980;44.898;8.602;2023-07-29T08:32:09;7.90;;;2.45;;
77051;SDS011;65980;44.898;8.602;2023-07-29T08:35:13;8.68;;;2.28;;
77051;SDS011;65980;44.898;8.602;2023-07-29T08:38:18;5.05;;;2.40;;
77051;SDS011;65980;44.898;8.602;2023-07-29T08:41:26;5.15;;;2.20;;
77051;SDS011;65980;44.898;8.602;2023-07-29T08:44:44;6.57;;;2.17;;
77051;SDS011;65980;44.898;8.602;2023-07-29T08:47:53;5.72;;;2.28;;
77051;SDS011;65980;44.898;8.602;2023-07-29T08:51:03;4.05;;;2.50;;
77051;SDS011;65980;44.898;8.602;2023-07-29T08:54:07;4.70;;;2.25;;
77051;SDS011;65980;44.898;8.602;2023-07-29T08:57:13;4.63;;;2.40;;
77051;SDS011;65980;44.898;8.602;2023-07-29T09:00:17;5.25;;;2.30;;
77051;SDS011;65980;44.898;8.602;2023-07-29T09:03:22;5.05;;;2.30;;
77051;SDS011;65980;44.898;8.602;2023-07-29T09:06:27;4.32;;;2.47;;
77051;SDS011;65980;44.898;8.602;2023-07-29T09:09:32;3.97;;;2.33;;
77051;SDS011;65980;44.898;8.602;2023-07-29T09:12:36;4.50;;;2.47;;
77051;SDS011;65980;44.898;8.602;2023-07-29T09:15:40;5.30;;;2.72;;
77051;SDS011;65980;44.898;8.602;2023-07-29T09:18:50;5.88;;;3.05;;
77051;SDS011;65980;44.898;8.602;2023-07-29T09:21:55;7.05;;;2.65;;
77051;SDS011;65980;44.898;8.602;2023-07-29T09:24:59;5.45;;;2.58;;
77051;SDS011;65980;44.898;8.602;2023-07-29T09:28:08;4.78;;;2.60;;
77051;SDS011;65980;44.898;8.602;2023-07-29T09:31:18;6.38;;;2.38;;
77051;SDS011;65980;44.898;8.602;2023-07-29T09:34:24;6.20;;;2.05;;
77051;SDS011;65980;44.898;8.602;2023-07-29T09:37:28;7.57;;;2.75;;
77051;SDS011;65980;44.898;8.602;2023-07-29T09:40:34;5.72;;;2.70;;
77051;SDS011;65980;44.898;8.602;2023-07-29T09:43:40;5.88;;;2.63;;
77051;SDS011;65980;44.898;8.602;2023-07-29T09:46:45;7.10;;;2.70;;
77051;SDS011;65980;44.898;8.602;2023-07-29T09:49:51;5.68;;;2.65;;
77051;SDS011;65980;44.898;8.602;2023-07-29T09:52:57;5.38;;;2.55;;
77051;SDS011;65980;44.898;8.602;2023-07-29T09:56:02;5.22;;;2.30;;
77051;SDS011;65980;44.898;8.602;2023-07-29T09:59:06;5.30;;;2.70;;
77051;SDS011;65980;44.898;8.602;2023-07-29T10:02:14;4.68;;;2.20;;
77051;SDS011;65980;44.898;8.602;2023-07-29T10:05:21;10.10;;;2.38;;
77051;SDS011;65980;44.898;8.602;2023-07-29T10:08:26;7.40;;;2.55;;
77051;SDS011;65980;44.898;8.602;2023-07-29T10:11:34;4.43;;;2.47;;
77051;SDS011;65980;44.898;8.602;2023-07-29T10:14:39;4.18;;;2.30;;
77051;SDS011;65980;44.898;8.602;2023-07-29T10:17:44;5.65;;;2.47;;
77051;SDS011;65980;44.898;8.602;2023-07-29T10:20:51;5.75;;;2.40;;
77051;SDS011;65980;44.898;8.602;2023-07-29T10:23:56;4.80;;;2.40;;
77051;SDS011;65980;44.898;8.602;2023-07-29T10:27:07;8.68;;;2.42;;
77051;SDS011;65980;44.898;8.602;2023-07-29T10:30:15;4.43;;;2.22;;
77051;SDS011;65980;44.898;8.602;2023-07-29T10:33:19;5.32;;;2.58;;
77051;SDS011;65980;44.898;8.602;2023-07-29T10:36:23;4.50;;;2.47;;
77051;SDS011;65980;44.898;8.602;2023-07-29T10:39:32;7.35;;;2.65;;
77051;SDS011;65980;44.898;8.602;2023-07-29T10:43:02;7.35;;;2.72;;
77051;SDS011;65980;44.898;8.602;2023-07-29T10:46:19;3.65;;;2.22;;
77051;SDS011;65980;44.898;8.602;2023-07-29T10:49:24;9.57;;;2.47;;
77051;SDS011;65980;44.898;8.602;2023-07-29T10:52:30;7.47;;;2.75;;
77051;SDS011;65980;44.898;8.602;2023-07-29T10:55:37;4.60;;;2.60;;
77051;SDS011;65980;44.898;8.602;2023-07-29T10:58:42;5.50;;;2.38;;
77051;SDS011;65980;44.898;8.602;2023-07-29T11:01:51;3.90;;;2.55;;
77051;SDS011;65980;44.898;8.602;2023-07-29T11:05:04;4.13;;;2.30;;
77051;SDS011;65980;44.898;8.602;2023-07-29T11:08:30;4.22;;;2.28;;
77051;SDS011;65980;44.898;8.602;2023-07-29T11:11:34;4.82;;;2.65;;
77051;SDS011;65980;44.898;8.602;2023-07-29T11:14:38;4.88;;;2.25;;
77051;SDS011;65980;44.898;8.602;2023-07-29T11:17:43;4.70;;;2.63;;
77051;SDS011;65980;44.898;8.602;2023-07-29T11:20:53;7.35;;;2.50;;
77051;SDS011;65980;44.898;8.602;2023-07-29T11:23:59;4.50;;;2.65;;
77051;SDS011;65980;44.898;8.602;2023-07-29T11:27:04;4.28;;;2.47;;
77051;SDS011;65980;44.898;8.602;2023-07-29T11:30:10;5.82;;;2.60;;
77051;SDS011;65980;44.898;8.602;2023-07-29T11:33:18;5.72;;;2.50;;
77051;SDS011;65980;44.898;8.602;2023-07-29T11:36:24;4.30;;;2.40;;
77051;SDS011;65980;44.898;8.602;2023-07-29T11:39:29;4.45;;;2.65;;
77051;SDS011;65980;44.898;8.602;2023-07-29T11:42:34;5.05;;;2.85;;
77051;SDS011;65980;44.898;8.602;2023-07-29T11:45:38;4.63;;;2.28;;
77051;SDS011;65980;44.898;8.602;2023-07-29T11:48:44;7.70;;;2.42;;
77051;SDS011;65980;44.898;8.602;2023-07-29T11:51:49;8.68;;;2.20;;
77051;SDS011;65980;44.898;8.602;2023-07-29T11:54:53;5.47;;;2.58;;
77051;SDS011;65980;44.898;8.602;2023-07-29T11:57:59;4.28;;;2.40;;
77051;SDS011;65980;44.898;8.602;2023-07-29T12:01:05;5.28;;;2.17;;
77051;SDS011;65980;44.898;8.602;2023-07-29T12:04:09;2.75;;;2.10;;
77051;SDS011;65980;44.898;8.602;2023-07-29T12:07:17;4.68;;;2.53;;
77051;SDS011;65980;44.898;8.602;2023-07-29T12:10:22;5.75;;;2.60;;
77051;SDS011;65980;44.898;8.602;2023-07-29T12:13:27;4.85;;;2.50;;
77051;SDS011;65980;44.898;8.602;2023-07-29T12:16:32;4.40;;;2.35;;
77051;SDS011;65980;44.898;8.602;2023-07-29T12:19:44;4.80;;;2.30;;
77051;SDS011;65980;44.898;8.602;2023-07-29T12:22:55;5.60;;;2.88;;
77051;SDS011;65980;44.898;8.602;2023-07-29T12:26:00;4.13;;;2.28;;
77051;SDS011;65980;44.898;8.602;2023-07-29T12:29:15;4.70;;;2.50;;
77051;SDS011;65980;44.898;8.602;2023-07-29T12:32:24;5.78;;;2.63;;
77051;SDS011;65980;44.898;8.602;2023-07-29T12:35:38;4.45;;;2.22;;
77051;SDS011;65980;44.898;8.602;2023-07-29T12:38:43;4.53;;;2.35;;
77051;SDS011;65980;44.898;8.602;2023-07-29T12:41:49;5.40;;;2.40;;
77051;SDS011;65980;44.898;8.602;2023-07-29T12:44:55;7.05;;;2.80;;
77051;SDS011;65980;44.898;8.602;2023-07-29T12:47:59;6.47;;;2.40;;
77051;SDS011;65980;44.898;8.602;2023-07-29T12:51:03;3.95;;;2.20;;
77051;SDS011;65980;44.898;8.602;2023-07-29T12:54:07;5.63;;;2.20;;
77051;SDS011;65980;44.898;8.602;2023-07-29T12:57:11;5.00;;;2.50;;
77051;SDS011;65980;44.898;8.602;2023-07-29T13:00:15;4.72;;;2.60;;
77051;SDS011;65980;44.898;8.602;2023-07-29T13:03:19;4.82;;;2.33;;
77051;SDS011;65980;44.898;8.602;2023-07-29T13:06:24;4.68;;;2.40;;
77051;SDS011;65980;44.898;8.602;2023-07-29T13:09:29;11.07;;;2.78;;
77051;SDS011;65980;44.898;8.602;2023-07-29T13:12:33;3.67;;;2.17;;
77051;SDS011;65980;44.898;8.602;2023-07-29T13:15:37;3.25;;;2.20;;
77051;SDS011;65980;44.898;8.602;2023-07-29T13:18:43;4.38;;;2.38;;
77051;SDS011;65980;44.898;8.602;2023-07-29T13:21:47;6.53;;;2.28;;
77051;SDS011;65980;44.898;8.602;2023-07-29T13:24:52;4.78;;;2.45;;
77051;SDS011;65980;44.898;8.602;2023-07-29T13:27:57;5.07;;;2.20;;
77051;SDS011;65980;44.898;8.602;2023-07-29T13:31:02;7.07;;;2.60;;
77051;SDS011;65980;44.898;8.602;2023-07-29T13:34:07;4.60;;;2.22;;
77051;SDS011;65980;44.898;8.602;2023-07-29T13:37:11;4.38;;;2.20;;
77051;SDS011;65980;44.898;8.602;2023-07-29T13:40:16;5.75;;;2.47;;
77051;SDS011;65980;44.898;8.602;2023-07-29T13:43:22;6.47;;;2.30;;
77051;SDS011;65980;44.898;8.602;2023-07-29T13:46:27;5.22;;;2.85;;
77051;SDS011;65980;44.898;8.602;2023-07-29T13:49:31;3.65;;;2.28;;
77051;SDS011;65980;44.898;8.602;2023-07-29T13:52:36;4.50;;;2.35;;
77051;SDS011;65980;44.898;8.602;2023-07-29T13:55:41;7.18;;;2.30;;
77051;SDS011;65980;44.898;8.602;2023-07-29T13:58:45;5.80;;;2.72;;
77051;SDS011;65980;44.898;8.602;2023-07-29T14:01:49;5.65;;;2.00;;
77051;SDS011;65980;44.898;8.602;2023-07-29T14:04:54;8.00;;;2.35;;
77051;SDS011;65980;44.898;8.602;2023-07-29T14:07:58;8.32;;;2.53;;
77051;SDS011;65980;44.898;8.602;2023-07-29T14:11:02;6.22;;;2.20;;
77051;SDS011;65980;44.898;8.602;2023-07-29T14:14:07;5.82;;;2.30;;
77051;SDS011;65980;44.898;8.602;2023-07-29T14:17:13;4.88;;;2.35;;
77051;SDS011;65980;44.898;8.602;2023-07-29T14:20:16;4.28;;;2.30;;
77051;SDS011;65980;44.898;8.602;2023-07-29T14:23:23;6.32;;;2.42;;
77051;SDS011;65980;44.898;8.602;2023-07-29T14:26:26;6.50;;;2.40;;
77051;SDS011;65980;44.898;8.602;2023-07-29T14:29:31;3.80;;;2.17;;
77051;SDS011;65980;44.898;8.602;2023-07-29T14:32:36;3.80;;;2.47;;
77051;SDS011;65980;44.898;8.602;2023-07-29T14:35:41;6.90;;;2.42;;
77051;SDS011;65980;44.898;8.602;2023-07-29T14:38:45;6.32;;;2.78;;
77051;SDS011;65980;44.898;8.602;2023-07-29T14:41:49;7.32;;;2.47;;
77051;SDS011;65980;44.898;8.602;2023-07-29T14:44:53;7.55;;;2.60;;
77051;SDS011;65980;44.898;8.602;2023-07-29T14:47:58;5.75;;;2.70;;
77051;SDS011;65980;44.898;8.602;2023-07-29T14:51:03;5.55;;;2.47;;
77051;SDS011;65980;44.898;8.602;2023-07-29T14:54:07;4.85;;;2.60;;
77051;SDS011;65980;44.898;8.602;2023-07-29T14:57:10;7.20;;;2.55;;
77051;SDS011;65980;44.898;8.602;2023-07-29T15:00:15;5.95;;;2.33;;
77051;SDS011;65980;44.898;8.602;2023-07-29T15:03:19;8.43;;;2.58;;
77051;SDS011;65980;44.898;8.602;2023-07-29T15:06:23;7.18;;;2.30;;
77051;SDS011;65980;44.898;8.602;2023-07-29T15:09:28;7.00;;;2.60;;
77051;SDS011;65980;44.898;8.602;2023-07-29T15:12:32;3.75;;;2.42;;
77051;SDS011;65980;44.898;8.602;2023-07-29T15:15:36;6.55;;;2.50;;
77051;SDS011;65980;44.898;8.602;2023-07-29T15:18:43;11.85;;;2.67;;
77051;SDS011;65980;44.898;8.602;2023-07-29T15:21:48;4.00;;;2.70;;
77051;SDS011;65980;44.898;8.602;2023-07-29T15:24:51;4.40;;;2.50;;
77051;SDS011;65980;44.898;8.602;2023-07-29T15:27:56;5.25;;;2.53;;
77051;SDS011;65980;44.898;8.602;2023-07-29T15:31:01;5.03;;;2.63;;
77051;SDS011;65980;44.898;8.602;2023-07-29T15:34:06;4.90;;;2.47;;
77051;SDS011;65980;44.898;8.602;2023-07-29T15:37:11;7.05;;;2.60;;
77051;SDS011;65980;44.898;8.602;2023-07-29T15:40:16;4.65;;;2.75;;
77051;SDS011;65980;44.898;8.602;2023-07-29T15:43:21;5.25;;;2.80;;
77051;SDS011;65980;44.898;8.602;2023-07-29T15:46:26;6.25;;;2.65;;
77051;SDS011;65980;44.898;8.602;2023-07-29T15:49:31;6.22;;;2.60;;
77051;SDS011;65980;44.898;8.602;2023-07-29T15:52:34;6.22;;;2.83;;
77051;SDS011;65980;44.898;8.602;2023-07-29T15:55:39;4.25;;;2.63;;
77051;SDS011;65980;44.898;8.602;2023-07-29T15:58:44;4.85;;;2.75;;
77051;SDS011;65980;44.898;8.602;2023-07-29T16:01:48;7.72;;;2.90;;
77051;SDS011;65980;44.898;8.602;2023-07-29T16:04:53;4.65;;;2.78;;
77051;SDS011;65980;44.898;8.602;2023-07-29T16:07:58;7.28;;;2.95;;
77051;SDS011;65980;44.898;8.602;2023-07-29T16:11:02;4.82;;;2.47;;
77051;SDS011;65980;44.898;8.602;2023-07-29T16:14:05;5.65;;;2.80;;
77051;SDS011;65980;44.898;8.602;2023-07-29T16:17:10;4.95;;;2.50;;
77051;SDS011;65980;44.898;8.602;2023-07-29T16:20:14;6.38;;;3.30;;
77051;SDS011;65980;44.898;8.602;2023-07-29T16:23:19;5.68;;;2.95;;
77051;SDS011;65980;44.898;8.602;2023-07-29T16:26:23;4.00;;;2.35;;
77051;SDS011;65980;44.898;8.602;2023-07-29T16:29:28;4.20;;;2.70;;
77051;SDS011;65980;44.898;8.602;2023-07-29T16:32:32;5.35;;;2.70;;
77051;SDS011;65980;44.898;8.602;2023-07-29T16:35:36;3.30;;;2.30;;
77051;SDS011;65980;44.898;8.602;2023-07-29T16:38:41;9.25;;;2.70;;
77051;SDS011;65980;44.898;8.602;2023-07-29T16:41:46;6.13;;;2.78;;
77051;SDS011;65980;44.898;8.602;2023-07-29T16:44:51;4.97;;;2.70;;
77051;SDS011;65980;44.898;8.602;2023-07-29T16:47:56;9.48;;;2.90;;
77051;SDS011;65980;44.898;8.602;2023-07-29T16:51:00;5.22;;;2.65;;
77051;SDS011;65980;44.898;8.602;2023-07-29T16:54:05;4.78;;;2.70;;
77051;SDS011;65980;44.898;8.602;2023-07-29T16:57:09;6.85;;;2.80;;
77051;SDS011;65980;44.898;8.602;2023-07-29T17:00:14;5.50;;;2.80;;
77051;SDS011;65980;44.898;8.602;2023-07-29T17:03:19;7.10;;;2.90;;
77051;SDS011;65980;44.898;8.602;2023-07-29T17:06:23;4.50;;;2.90;;
77051;SDS011;65980;44.898;8.602;2023-07-29T17:09:28;5.57;;;2.90;;
77051;SDS011;65980;44.898;8.602;2023-07-29T17:12:32;7.45;;;3.05;;
77051;SDS011;65980;44.898;8.602;2023-07-29T17:15:36;6.63;;;3.20;;
77051;SDS011;65980;44.898;8.602;2023-07-29T17:18:39;6.90;;;2.97;;
77051;SDS011;65980;44.898;8.602;2023-07-29T17:21:44;6.32;;;2.78;;
77051;SDS011;65980;44.898;8.602;2023-07-29T17:24:47;7.63;;;3.25;;
77051;SDS011;65980;44.898;8.602;2023-07-29T17:27:52;10.82;;;3.17;;
77051;SDS011;65980;44.898;8.602;2023-07-29T17:30:59;6.65;;;3.38;;
77051;SDS011;65980;44.898;8.602;2023-07-29T17:34:04;8.02;;;3.40;;
77051;SDS011;65980;44.898;8.602;2023-07-29T17:37:09;6.70;;;2.97;;
77051;SDS011;65980;44.898;8.602;2023-07-29T17:40:12;11.50;;;3.63;;
77051;SDS011;65980;44.898;8.602;2023-07-29T17:43:17;7.45;;;3.58;;
77051;SDS011;65980;44.898;8.602;2023-07-29T17:46:22;6.57;;;3.10;;
77051;SDS011;65980;44.898;8.602;2023-07-29T17:49:27;6.20;;;3.55;;
77051;SDS011;65980;44.898;8.602;2023-07-29T17:52:31;4.95;;;3.22;;
77051;SDS011;65980;44.898;8.602;2023-07-29T17:55:37;6.63;;;3.70;;
77051;SDS011;65980;44.898;8.602;2023-07-29T17:58:42;7.00;;;3.50;;
77051;SDS011;65980;44.898;8.602;2023-07-29T18:01:47;5.28;;;3.47;;
77051;SDS011;65980;44.898;8.602;2023-07-29T18:04:54;5.13;;;3.40;;
77051;SDS011;65980;44.898;8.602;2023-07-29T18:08:00;5.43;;;3.30;;
77051;SDS011;65980;44.898;8.602;2023-07-29T18:11:05;5.97;;;3.35;;
77051;SDS011;65980;44.898;8.602;2023-07-29T18:14:08;5.30;;;3.15;;
77051;SDS011;65980;44.898;8.602;2023-07-29T18:17:12;6.28;;;3.67;;
77051;SDS011;65980;44.898;8.602;2023-07-29T18:20:19;11.75;;;3.95;;
77051;SDS011;65980;44.898;8.602;2023-07-29T18:23:24;5.32;;;3.53;;
77051;SDS011;65980;44.898;8.602;2023-07-29T18:26:29;7.47;;;3.50;;
77051;SDS011;65980;44.898;8.602;2023-07-29T18:29:34;9.68;;;3.60;;
77051;SDS011;65980;44.898;8.602;2023-07-29T18:32:39;5.35;;;3.40;;
77051;SDS011;65980;44.898;8.602;2023-07-29T18:35:44;9.13;;;3.80;;
77051;SDS011;65980;44.898;8.602;2023-07-29T18:38:47;10.20;;;3.70;;
77051;SDS011;65980;44.898;8.602;2023-07-29T18:41:52;5.97;;;3.20;;